| Date | Time | Temp. (oF) | Dew Point (oF) | Rel. Hum. (%) | Press. (in.) | Wind Dir. | Wind Speed (mph) | Hourly Rainfall (in.) |
|
|---|---|---|---|---|---|---|---|---|---|
| 1 | 11/10 | 00:00 | 53 | 48 | 86 | 30.28 | WSW | 0 | 0.00 |
| 2 | 11/09 | 23:00 | 53 | 47 | 83 | 30.28 | WSW | 0 | 0.00 |
| 3 | 11/09 | 22:00 | 55 | 48 | 79 | 30.28 | SSE | 0 | 0.00 |
| 4 | 11/09 | 21:00 | 57 | 48 | 74 | 30.29 | SW | 0 | 0.00 |
| 5 | 11/09 | 20:00 | 57 | 48 | 72 | 30.28 | SSW | 0 | 0.00 |
| 6 | 11/09 | 19:00 | 59 | 49 | 70 | 30.28 | SSW | 0 | 0.00 |
| 7 | 11/09 | 18:00 | 61 | 49 | 66 | 30.29 | S | 0 | 0.00 |
| 8 | 11/09 | 17:00 | 64 | 49 | 60 | 30.28 | S | 0 | 0.00 |
| 9 | 11/09 | 16:00 | 67 | 50 | 55 | 30.28 | S | 6 | 0.00 |
| 10 | 11/09 | 15:00 | 69 | 50 | 52 | 30.28 | SSW | 7 | 0.00 |
| 11 | 11/09 | 14:00 | 70 | 52 | 54 | 30.27 | SSW | 0 | 0.00 |
| 12 | 11/09 | 13:00 | 69 | 52 | 55 | 30.28 | SW | 10 | 0.00 |
| 13 | 11/09 | 12:00 | 68 | 52 | 58 | 30.32 | SSW | 10 | 0.00 |
| 14 | 11/09 | 11:00 | 66 | 52 | 63 | 30.36 | SSW | 3 | 0.00 |
| 15 | 11/09 | 10:00 | 59 | 53 | 81 | 30.39 | SW | 0 | 0.00 |
| 16 | 11/09 | 09:00 | 53 | 51 | 93 | 30.39 | SE | 0 | 0.00 |
| 17 | 11/09 | 08:00 | 43 | 42 | 100 | 30.41 | WNW | 0 | 0.00 |
| 18 | 11/09 | 07:00 | 37 | 36 | 100 | 30.40 | W | 0 | 0.00 |
| 19 | 11/09 | 06:00 | 38 | 37 | 100 | 30.39 | W | 0 | 0.00 |
| 20 | 11/09 | 05:00 | 39 | 39 | 100 | 30.37 | W | 0 | 0.00 |
| 21 | 11/09 | 04:00 | 39 | 38 | 99 | 30.37 | W | 0 | 0.00 |
| 22 | 11/09 | 03:00 | 40 | 39 | 99 | 30.36 | W | 0 | 0.00 |
| 23 | 11/09 | 02:00 | 42 | 41 | 99 | 30.35 | W | 0 | 0.00 |
| 24 | 11/09 | 01:00 | 42 | 41 | 97 | 30.35 | SW | 0 | 0.00 |